createdAt,value
2023-02-11T00:02:31.144Z,100211.73
2023-02-11T00:05:14.132Z,100211.45
2023-02-11T00:08:09.323Z,100210.59
2023-02-11T00:11:04.299Z,100201.61
2023-02-11T00:13:39.256Z,100189.79
2023-02-11T00:16:28.197Z,100180.40
2023-02-11T00:19:11.290Z,100180.63
2023-02-11T00:21:59.185Z,100178.02
2023-02-11T00:24:34.525Z,100169.33
2023-02-11T00:27:22.117Z,100162.95
2023-02-11T00:29:57.295Z,100159.48
2023-02-11T00:32:45.638Z,100157.05
2023-02-11T00:35:20.261Z,100160.48
2023-02-11T00:38:15.138Z,100160.18
2023-02-11T00:41:03.197Z,100163.62
2023-02-11T00:43:45.145Z,100161.36
2023-02-11T00:46:40.149Z,100160.05
2023-02-11T00:49:28.440Z,100155.58
2023-02-11T00:52:10.437Z,100143.80
2023-02-11T00:54:51.615Z,100137.71
2023-02-11T00:57:39.164Z,100133.80
2023-02-11T01:00:21.105Z,100133.04
2023-02-11T01:03:02.317Z,100132.26
2023-02-11T01:05:44.111Z,100129.16
2023-02-11T01:08:26.264Z,100120.91
2023-02-11T01:11:10.106Z,100122.84
2023-02-11T01:13:58.205Z,100114.81
2023-02-11T01:16:32.531Z,100101.40
2023-02-11T01:19:20.149Z,100100.23
2023-02-11T01:21:54.769Z,100098.34
2023-02-11T01:24:43.095Z,100088.38
2023-02-11T01:27:24.190Z,100084.48
2023-02-11T01:30:05.264Z,100085.10
2023-02-11T01:32:47.090Z,100082.84
2023-02-11T01:35:28.288Z,100078.05
2023-02-11T01:38:10.135Z,100072.20
2023-02-11T01:41:00.320Z,100069.80
2023-02-11T01:43:48.168Z,100068.08
2023-02-11T01:46:49.173Z,100064.09
2023-02-11T01:50:12.098Z,100048.05
2023-02-11T01:53:00.137Z,100023.23
2023-02-11T01:55:53.712Z,100010.48
2023-02-11T01:58:43.080Z,100007.67
2023-02-11T02:01:20.253Z,100009.71
2023-02-11T02:04:09.102Z,100017.52
2023-02-11T02:07:03.475Z,100021.97
2023-02-11T02:09:55.090Z,100019.55
2023-02-11T02:12:36.205Z,100016.59
2023-02-11T02:15:29.111Z,100014.83
2023-02-11T02:18:48.973Z,100023.80
2023-02-11T02:21:52.189Z,100023.14
2023-02-11T02:24:49.243Z,100024.48
2023-02-11T02:27:39.136Z,100030.77
2023-02-11T02:31:03.445Z,100033.36
2023-02-11T02:33:53.082Z,100029.90
2023-02-11T02:36:57.101Z,100023.48
2023-02-11T02:39:45.138Z,100022.94
2023-02-11T02:42:27.133Z,100019.14
2023-02-11T02:45:09.821Z,100006.96
2023-02-11T02:47:58.094Z,99996.42
2023-02-11T02:50:35.690Z,99987.06
2023-02-11T02:53:46.161Z,99979.23
2023-02-11T02:56:40.748Z,99967.45
2023-02-11T02:59:36.167Z,99965.17
2023-02-11T03:02:32.094Z,99964.50
2023-02-11T03:05:58.113Z,99958.17
2023-02-11T03:08:41.669Z,99949.68
2023-02-11T03:11:32.086Z,99934.89
2023-02-11T03:14:11.111Z,99932.40
2023-02-11T03:17:00.056Z,99926.83
2023-02-11T03:19:43.665Z,99907.86
2023-02-11T03:22:36.106Z,99892.09
2023-02-11T03:25:31.109Z,99875.84
2023-02-11T03:28:37.053Z,99867.46
2023-02-11T03:31:22.306Z,99860.41
2023-02-11T03:34:32.093Z,99864.25
2023-02-11T03:37:37.014Z,99874.55
2023-02-11T03:40:36.061Z,99859.01
2023-02-11T03:43:18.222Z,99853.64
2023-02-11T03:46:06.112Z,99853.23
2023-02-11T03:48:48.266Z,99856.86
2023-02-11T03:51:37.118Z,99864.55
2023-02-11T03:54:23.112Z,99874.36
2023-02-11T03:57:11.147Z,99880.86
2023-02-11T04:00:11.062Z,99880.53
2023-02-11T04:02:59.139Z,99878.02
2023-02-11T04:05:41.210Z,99874.13
2023-02-11T04:08:23.099Z,99862.55
2023-02-11T04:11:04.279Z,99846.09
2023-02-11T04:13:46.076Z,99834.45
2023-02-11T04:16:27.243Z,99828.61
2023-02-11T04:19:08.046Z,99817.31
2023-02-11T04:21:56.054Z,99811.39
2023-02-11T04:24:37.133Z,99806.52
2023-02-11T04:27:25.041Z,99803.08
2023-02-11T04:30:06.142Z,99797.02
2023-02-11T04:32:47.218Z,99784.27
2023-02-11T04:35:29.112Z,99774.48
2023-02-11T04:38:24.116Z,99768.70
2023-02-11T04:41:19.035Z,99760.90
2023-02-11T04:44:07.039Z,99769.98
2023-02-11T04:46:42.154Z,99784.86
2023-02-11T04:49:30.130Z,99794.30
2023-02-11T04:52:05.576Z,99794.17
2023-02-11T04:54:53.097Z,99797.63
2023-02-11T04:57:28.257Z,99808.74
2023-02-11T05:00:17.041Z,99813.54
2023-02-11T05:02:59.092Z,99817.39
2023-02-11T05:05:55.041Z,99820.96
2023-02-11T05:08:43.051Z,99818.04
2023-02-11T05:11:33.159Z,99811.63
2023-02-11T05:14:21.076Z,99798.81
2023-02-11T05:16:56.257Z,99794.03
2023-02-11T05:19:44.048Z,99792.41
2023-02-11T05:22:20.119Z,99791.10
2023-02-11T05:25:08.023Z,99795.98
2023-02-11T05:27:50.008Z,99797.06
2023-02-11T05:30:38.054Z,99794.29
2023-02-11T05:33:20.011Z,99794.43
2023-02-11T05:36:14.021Z,99804.35
2023-02-11T05:38:56.049Z,99816.80
2023-02-11T05:41:45.046Z,99815.94
2023-02-11T05:44:20.248Z,99814.84
2023-02-11T05:47:08.082Z,99814.02
2023-02-11T05:49:43.219Z,99792.02
2023-02-11T05:52:31.000Z,99754.09
2023-02-11T05:55:05.151Z,99741.61
2023-02-11T05:57:53.102Z,99700.83
2023-02-11T06:00:28.138Z,99673.13
2023-02-11T06:03:16.083Z,99658.42
2023-02-11T06:05:57.151Z,99630.42
2023-02-11T06:08:39.311Z,99611.04
2023-02-11T06:11:31.003Z,99620.48
2023-02-11T06:14:05.910Z,99637.80
2023-02-11T06:16:54.046Z,99655.77
2023-02-11T06:19:28.872Z,99666.15
2023-02-11T06:22:17.036Z,99682.55
2023-02-11T06:25:01.319Z,99690.29
2023-02-11T06:27:50.995Z,99700.89
2023-02-11T06:30:25.408Z,99697.42
2023-02-11T06:33:13.100Z,99696.33
2023-02-11T06:35:47.517Z,99696.25
2023-02-11T06:38:35.046Z,99698.70
2023-02-11T06:41:17.996Z,99697.75
2023-02-11T06:44:07.013Z,99699.37
2023-02-11T06:46:41.519Z,99699.29
2023-02-11T06:49:29.074Z,99700.42
2023-02-11T06:52:03.801Z,99702.23
2023-02-11T06:54:53.069Z,99704.41
2023-02-11T06:57:33.978Z,99710.84
2023-02-11T07:00:16.116Z,99721.82
2023-02-11T07:02:57.130Z,99721.89
2023-02-11T07:05:46.002Z,99708.37
2023-02-11T07:08:27.049Z,99690.20
2023-02-11T07:11:08.125Z,99677.86
2023-02-11T07:13:51.403Z,99686.14
2023-02-11T07:16:33.275Z,99681.33
2023-02-11T07:19:14.999Z,99677.33
2023-02-11T07:21:56.200Z,99673.55
2023-02-11T07:24:36.975Z,99668.04
2023-02-11T07:27:18.114Z,99661.96
2023-02-11T07:29:58.985Z,99651.19
2023-02-11T07:32:40.125Z,99653.73
2023-02-11T07:35:21.939Z,99651.29
2023-02-11T07:38:03.096Z,99649.82
2023-02-11T07:40:50.948Z,99646.75
2023-02-11T07:43:25.060Z,99645.50
2023-02-11T07:46:15.005Z,99640.67
2023-02-11T07:48:56.939Z,99639.70
2023-02-11T07:51:52.936Z,99639.63
2023-02-11T07:54:40.974Z,99637.95
2023-02-11T07:57:22.103Z,99637.46
2023-02-11T08:00:02.938Z,99636.55
2023-02-11T08:02:45.052Z,99637.64
2023-02-11T08:05:25.986Z,99636.73
2023-02-11T08:08:13.972Z,99637.50
2023-02-11T08:10:49.024Z,99643.24
2023-02-11T08:13:36.928Z,99642.53
2023-02-11T08:16:29.004Z,99643.33
2023-02-11T08:19:15.146Z,99646.52
2023-02-11T08:21:56.980Z,99646.32
2023-02-11T08:24:44.983Z,99644.73
2023-02-11T08:27:19.908Z,99643.85
2023-02-11T08:30:08.955Z,99638.16
2023-02-11T08:32:43.366Z,99628.19
2023-02-11T08:35:31.961Z,99624.54
2023-02-11T08:38:12.973Z,99627.23
2023-02-11T08:40:54.091Z,99638.15
2023-02-11T08:43:34.977Z,99641.98
2023-02-11T08:46:20.199Z,99645.75
2023-02-11T08:49:07.963Z,99643.79
2023-02-11T08:51:43.130Z,99638.58
2023-02-11T08:54:30.943Z,99636.79
2023-02-11T08:57:12.972Z,99627.14
2023-02-11T09:00:00.962Z,99628.18
2023-02-11T09:02:36.198Z,99622.97
2023-02-11T09:05:24.297Z,99617.63
2023-02-11T09:08:05.946Z,99621.44
2023-02-11T09:11:00.965Z,99617.77
2023-02-11T09:13:52.579Z,99617.26
2023-02-11T09:16:35.100Z,99614.23
2023-02-11T09:19:23.949Z,99616.23
2023-02-11T09:21:59.168Z,99614.66
2023-02-11T09:24:46.921Z,99611.86
2023-02-11T09:27:28.943Z,99607.34
2023-02-11T09:30:24.981Z,99621.98
2023-02-11T09:33:12.936Z,99630.05
2023-02-11T09:35:47.030Z,99631.20
2023-02-11T09:38:41.953Z,99627.31
2023-02-11T09:41:29.936Z,99630.92
2023-02-11T09:44:08.089Z,99632.27
2023-02-11T09:47:05.938Z,99630.45
2023-02-11T09:49:52.121Z,99635.73
2023-02-11T09:52:45.955Z,99644.05
2023-02-11T09:55:43.961Z,99636.91
2023-02-11T09:58:42.933Z,99622.43
2023-02-11T10:01:37.030Z,99620.03
2023-02-11T10:04:31.116Z,99613.30
2023-02-11T10:07:25.925Z,99609.45
2023-02-11T10:10:31.107Z,99598.61
2023-02-11T10:13:42.646Z,99589.67
2023-02-11T10:17:09.894Z,99595.32
2023-02-11T10:20:10.152Z,99599.94
2023-02-11T10:22:49.693Z,99592.06
2023-02-11T10:25:45.449Z,99587.45
2023-02-11T10:28:26.146Z,99592.13
2023-02-11T10:31:18.127Z,99576.91
2023-02-11T10:37:16.951Z,99541.64
2023-02-11T10:39:58.401Z,99528.35
2023-02-11T10:42:47.089Z,99517.61
2023-02-11T10:45:34.102Z,99511.44
2023-02-11T10:48:56.237Z,99509.86
2023-02-11T10:51:42.609Z,99499.98
2023-02-11T10:54:33.371Z,99488.30
2023-02-11T10:57:19.063Z,99481.51
2023-02-11T11:00:11.941Z,99468.87
2023-02-11T11:02:53.081Z,99464.95
2023-02-11T11:05:41.887Z,99460.31
2023-02-11T11:08:23.937Z,99456.86
2023-02-11T11:11:19.160Z,99454.44
2023-02-11T11:14:04.944Z,99449.80
2023-02-11T11:16:46.057Z,99449.02
2023-02-11T11:19:31.934Z,99452.13
2023-02-11T11:22:20.110Z,99452.09
2023-02-11T11:24:57.609Z,99451.87
2023-02-11T11:27:46.933Z,99453.27
2023-02-11T11:30:25.847Z,99452.67
2023-02-11T11:33:15.027Z,99452.89
2023-02-11T11:36:01.074Z,99456.20
2023-02-11T11:38:52.062Z,99443.27
2023-02-11T11:41:34.181Z,99437.39
2023-02-11T11:44:42.922Z,99429.78
2023-02-11T11:47:38.189Z,99434.94
2023-02-11T11:50:38.132Z,99446.66
2023-02-11T11:53:25.943Z,99450.11
2023-02-11T11:56:26.082Z,99450.81
2023-02-11T11:59:12.910Z,99455.02
2023-02-11T12:02:26.165Z,99448.33
2023-02-11T12:05:27.862Z,99439.02
2023-02-11T12:08:30.928Z,99429.31
2023-02-11T12:11:14.488Z,99436.28
2023-02-11T12:14:07.954Z,99438.45
2023-02-11T12:17:18.929Z,99440.76
2023-02-11T12:20:20.034Z,99441.73
2023-02-11T12:23:03.928Z,99427.58
2023-02-11T12:26:04.031Z,99417.59
2023-02-11T12:28:56.927Z,99422.59
2023-02-11T12:32:14.247Z,99417.79
2023-02-11T12:35:19.929Z,99414.88
2023-02-11T12:38:31.253Z,99416.33
2023-02-11T12:41:52.917Z,99413.27
2023-02-11T12:45:05.914Z,99404.71
2023-02-11T12:48:15.019Z,99393.31
2023-02-11T12:51:40.926Z,99386.61
2023-02-11T12:54:53.069Z,99388.24
2023-02-11T12:57:43.916Z,99393.63
2023-02-11T13:00:38.155Z,99400.54
2023-02-11T13:03:28.122Z,99392.75
2023-02-11T13:06:07.270Z,99383.27
2023-02-11T13:09:07.092Z,99368.86
2023-02-11T13:11:52.214Z,99369.50
2023-02-11T13:14:48.086Z,99361.82
2023-02-11T13:17:42.777Z,99359.40
2023-02-11T13:20:49.109Z,99348.66
2023-02-11T13:23:31.557Z,99331.20
2023-02-11T13:26:31.861Z,99318.67
2023-02-11T13:29:29.917Z,99300.91
2023-02-11T13:32:19.894Z,99293.90
2023-02-11T13:35:04.033Z,99298.05
2023-02-11T13:37:47.216Z,99304.71
2023-02-11T13:40:38.044Z,99328.85
2023-02-11T13:43:31.895Z,99334.14
2023-02-11T13:46:16.031Z,99339.14
2023-02-11T13:48:58.909Z,99344.34
2023-02-11T13:51:55.887Z,99351.40
2023-02-11T13:54:45.904Z,99355.34
2023-02-11T13:57:27.030Z,99361.51
2023-02-11T14:00:42.919Z,99358.25
2023-02-11T14:03:45.538Z,99355.52
2023-02-11T14:06:50.902Z,99358.23
2023-02-11T14:09:47.009Z,99364.92
2023-02-11T14:12:41.090Z,99371.40
2023-02-11T14:15:33.904Z,99383.08
2023-02-11T14:19:00.884Z,99380.77
2023-02-11T14:21:50.103Z,99377.21
2023-02-11T14:24:32.100Z,99381.60
2023-02-11T14:27:46.914Z,99387.11
2023-02-11T14:31:06.990Z,99394.71
2023-02-11T14:33:51.084Z,99381.58
2023-02-11T14:36:59.091Z,99385.81
2023-02-11T14:40:28.098Z,99374.89
2023-02-11T14:43:48.881Z,99370.70
2023-02-11T14:46:27.491Z,99375.58
2023-02-11T14:49:25.895Z,99378.59
2023-02-11T14:52:15.911Z,99382.83
2023-02-11T14:55:43.930Z,99389.13
2023-02-11T14:58:34.893Z,99395.02
2023-02-11T15:01:36.006Z,99385.30
2023-02-11T15:04:36.927Z,99375.55
2023-02-11T15:07:20.928Z,99373.51
2023-02-11T15:10:15.888Z,99370.13
2023-02-11T15:13:05.055Z,99371.30
2023-02-11T15:15:41.462Z,99380.31
2023-02-11T15:18:32.912Z,99381.74
2023-02-11T15:21:08.760Z,99387.65
2023-02-11T15:24:08.713Z,99393.69
2023-02-11T15:26:44.216Z,99395.14
2023-02-11T15:29:44.876Z,99393.33
2023-02-11T15:32:25.186Z,99395.46
2023-02-11T15:35:17.929Z,99392.58
2023-02-11T15:37:59.909Z,99395.81
2023-02-11T15:41:10.220Z,99394.09
2023-02-11T15:44:05.889Z,99399.68
2023-02-11T15:46:55.720Z,99403.17
2023-02-11T15:49:32.226Z,99405.10
2023-02-11T15:52:21.948Z,99397.66
2023-02-11T15:55:03.877Z,99403.05
2023-02-11T15:58:10.967Z,99404.33
2023-02-11T16:01:06.887Z,99406.25
2023-02-11T16:03:42.066Z,99415.77
2023-02-11T16:06:42.122Z,99416.63
2023-02-11T16:09:16.998Z,99409.88
2023-02-11T16:12:09.897Z,99415.94
2023-02-11T16:14:50.906Z,99419.92
2023-02-11T16:17:38.947Z,99413.08
2023-02-11T16:20:24.009Z,99415.02
2023-02-11T16:23:13.896Z,99426.70
2023-02-11T16:25:49.616Z,99438.24
2023-02-11T16:28:37.980Z,99422.95
2023-02-11T16:31:19.993Z,99423.52
2023-02-11T16:34:03.345Z,99433.44
2023-02-11T16:36:53.916Z,99434.27
2023-02-11T16:39:28.438Z,99431.42
2023-02-11T16:42:17.061Z,99425.69
2023-02-11T16:44:58.068Z,99422.02
2023-02-11T16:47:42.448Z,99426.71
2023-02-11T16:50:31.934Z,99429.28
2023-02-11T16:53:13.186Z,99437.21
2023-02-11T16:55:57.887Z,99441.02
2023-02-11T16:58:39.094Z,99448.77
2023-02-11T17:01:19.912Z,99447.78
2023-02-11T17:04:07.951Z,99448.52
2023-02-11T17:06:42.460Z,99451.86
2023-02-11T17:09:38.016Z,99453.05
2023-02-11T17:12:12.375Z,99448.51
2023-02-11T17:15:00.891Z,99455.94
2023-02-11T17:17:35.498Z,99455.98
2023-02-11T17:20:26.849Z,99457.05
2023-02-11T17:23:01.481Z,99455.35
2023-02-11T17:25:51.054Z,99454.94
2023-02-11T17:28:26.404Z,99453.44
2023-02-11T17:31:16.475Z,99454.67
2023-02-11T17:33:59.052Z,99459.95
2023-02-11T17:36:41.922Z,99458.01
2023-02-11T17:39:23.853Z,99457.34
2023-02-11T17:42:06.178Z,99456.52
2023-02-11T17:44:47.860Z,99450.99
2023-02-11T17:47:29.042Z,99458.33
2023-02-11T17:50:17.014Z,99458.92
2023-02-11T17:52:59.059Z,99458.73
2023-02-11T17:55:54.055Z,99467.19
2023-02-11T17:58:41.853Z,99464.94
2023-02-11T18:01:17.067Z,99465.26
2023-02-11T18:04:04.874Z,99467.45
2023-02-11T18:06:41.262Z,99471.62
2023-02-11T18:09:28.871Z,99470.05
2023-02-11T18:12:04.396Z,99471.75
2023-02-11T18:14:51.875Z,99470.61
2023-02-11T18:17:35.056Z,99473.47
2023-02-11T18:20:29.873Z,99474.61
2023-02-11T18:23:17.845Z,99478.94
2023-02-11T18:25:54.204Z,99479.73
2023-02-11T18:28:45.279Z,99477.48
2023-02-11T18:31:29.673Z,99473.16
2023-02-11T18:34:15.999Z,99478.46
2023-02-11T18:36:57.274Z,99485.18
2023-02-11T18:39:41.868Z,99482.65
2023-02-11T18:42:28.477Z,99483.56
2023-02-11T18:45:14.393Z,99483.44
2023-02-11T18:48:02.883Z,99488.12
2023-02-11T18:50:37.643Z,99490.27
2023-02-11T18:53:27.964Z,99490.46
2023-02-11T18:56:08.763Z,99490.02
2023-02-11T18:58:57.845Z,99495.48
2023-02-11T19:01:41.012Z,99496.94
2023-02-11T19:04:29.934Z,99494.10
2023-02-11T19:07:06.068Z,99493.30
2023-02-11T19:09:55.451Z,99493.84
2023-02-11T19:12:32.024Z,99493.77
2023-02-11T19:15:21.843Z,99496.61
2023-02-11T19:17:56.520Z,99501.98
2023-02-11T19:20:45.120Z,99502.44
2023-02-11T19:23:20.285Z,99503.23
2023-02-11T19:26:13.044Z,99503.20
2023-02-11T19:28:54.026Z,99506.80
2023-02-11T19:31:43.117Z,99507.18
2023-02-11T19:34:21.413Z,99514.95
2023-02-11T19:37:09.784Z,99515.75
2023-02-11T19:39:50.973Z,99510.58
2023-02-11T19:42:32.843Z,99514.08
2023-02-11T19:45:28.027Z,99516.17
2023-02-11T19:48:19.545Z,99514.07
2023-02-11T19:50:55.396Z,99518.38
2023-02-11T19:53:45.038Z,99521.19
2023-02-11T19:56:29.815Z,99519.97
2023-02-11T19:59:20.465Z,99528.24
2023-02-11T20:02:01.864Z,99527.79
2023-02-11T20:04:49.867Z,99527.05
2023-02-11T20:07:25.061Z,99529.25
2023-02-11T20:10:13.818Z,99530.46
2023-02-11T20:12:55.837Z,99528.64
2023-02-11T20:15:54.401Z,99529.30
2023-02-11T20:18:42.843Z,99532.16
2023-02-11T20:21:31.500Z,99530.35
2023-02-11T20:24:19.857Z,99528.40
2023-02-11T20:27:00.994Z,99525.38
2023-02-11T20:29:42.779Z,99529.44
2023-02-11T20:32:32.776Z,99534.98
2023-02-11T20:35:14.821Z,99537.06
2023-02-11T20:37:56.422Z,99539.80
2023-02-11T20:40:37.849Z,99533.45
2023-02-11T20:43:19.033Z,99539.31
2023-02-11T20:45:59.902Z,99537.41
2023-02-11T20:48:42.042Z,99539.41
2023-02-11T20:51:36.033Z,99544.95
2023-02-11T20:54:28.819Z,99549.04
2023-02-11T20:57:03.248Z,99548.81
2023-02-11T20:59:50.845Z,99554.33
2023-02-11T21:02:26.392Z,99553.25
2023-02-11T21:05:13.996Z,99553.64
2023-02-11T21:07:49.326Z,99553.75
2023-02-11T21:10:37.823Z,99551.95
2023-02-11T21:13:19.001Z,99547.48
2023-02-11T21:16:03.057Z,99550.07
2023-02-11T21:18:45.815Z,99551.15
2023-02-11T21:21:29.152Z,99551.48
2023-02-11T21:24:11.845Z,99557.87
2023-02-11T21:26:53.319Z,99562.41
2023-02-11T21:29:40.452Z,99567.30
2023-02-11T21:32:26.980Z,99572.67
2023-02-11T21:35:07.951Z,99574.36
2023-02-11T21:37:55.816Z,99581.71
2023-02-11T21:40:36.814Z,99582.19
2023-02-11T21:43:17.984Z,99582.67
2023-02-11T21:46:01.999Z,99589.11
2023-02-11T21:48:50.841Z,99586.19
2023-02-11T21:51:26.087Z,99589.05
2023-02-11T21:54:14.952Z,99595.65
2023-02-11T21:56:58.830Z,99595.32
2023-02-11T21:59:40.072Z,99599.17
2023-02-11T22:02:22.033Z,99604.66
2023-02-11T22:05:03.329Z,99608.29
2023-02-11T22:07:44.807Z,99612.27
2023-02-11T22:10:26.230Z,99614.83
2023-02-11T22:13:07.805Z,99617.05
2023-02-11T22:15:48.946Z,99619.94
2023-02-11T22:18:29.808Z,99616.04
2023-02-11T22:21:23.847Z,99618.00
2023-02-11T22:24:05.016Z,99626.26
2023-02-11T22:26:46.151Z,99620.11
2023-02-11T22:29:33.922Z,99623.54
2023-02-11T22:32:09.016Z,99626.75
2023-02-11T22:34:56.817Z,99631.61
2023-02-11T22:37:31.971Z,99637.88
2023-02-11T22:40:20.780Z,99642.34
2023-02-11T22:42:55.967Z,99647.36
2023-02-11T22:45:43.828Z,99647.95
2023-02-11T22:48:22.107Z,99649.54
2023-02-11T22:51:22.811Z,99655.61
2023-02-11T22:54:10.808Z,99654.34
2023-02-11T22:56:58.793Z,99658.13
2023-02-11T22:59:32.917Z,99660.34
2023-02-11T23:02:21.005Z,99662.45
2023-02-11T23:05:02.788Z,99663.16
2023-02-11T23:07:50.812Z,99664.34
2023-02-11T23:10:32.911Z,99667.52
2023-02-11T23:13:20.800Z,99668.95
2023-02-11T23:15:56.054Z,99664.95
2023-02-11T23:18:44.783Z,99671.30
2023-02-11T23:21:23.928Z,99672.94
2023-02-11T23:24:13.865Z,99670.52
2023-02-11T23:27:01.913Z,99668.67
2023-02-11T23:29:37.386Z,99674.05
2023-02-11T23:32:26.022Z,99670.67
2023-02-11T23:35:01.192Z,99669.56
2023-02-11T23:37:48.780Z,99661.80
2023-02-11T23:40:37.045Z,99665.52
2023-02-11T23:43:24.784Z,99670.83
2023-02-11T23:45:59.321Z,99676.77
2023-02-11T23:48:46.830Z,99679.89
2023-02-11T23:51:25.166Z,99677.90
2023-02-11T23:54:13.809Z,99675.52
2023-02-11T23:56:48.937Z,99679.98
2023-02-11T23:59:36.795Z,99680.36
